createdAt,value
2017-06-16T00:01:19.663Z,18.20
2017-06-16T00:03:47.141Z,18.20
2017-06-16T00:06:15.424Z,18.10
2017-06-16T00:08:43.684Z,18.10
2017-06-16T00:11:11.952Z,18.20
2017-06-16T00:13:39.432Z,18.10
2017-06-16T00:16:07.665Z,18.10
2017-06-16T00:18:35.166Z,18.10
2017-06-16T00:21:03.409Z,18.10
2017-06-16T00:23:30.908Z,18.10
2017-06-16T00:25:58.391Z,18.10
2017-06-16T00:28:25.878Z,18.10
2017-06-16T00:30:53.370Z,18.00
2017-06-16T00:33:21.608Z,18.00
2017-06-16T00:35:49.143Z,18.00
2017-06-16T00:38:16.633Z,18.10
2017-06-16T00:40:44.141Z,18.10
2017-06-16T00:43:11.620Z,18.10
2017-06-16T00:45:39.102Z,18.20
2017-06-16T00:48:06.588Z,18.20
2017-06-16T00:50:34.064Z,18.30
2017-06-16T00:53:02.320Z,18.20
2017-06-16T00:55:29.801Z,18.20
2017-06-16T00:57:57.298Z,18.20
2017-06-16T01:00:24.765Z,18.30
2017-06-16T01:02:52.261Z,18.40
2017-06-16T01:05:20.500Z,18.40
2017-06-16T01:07:48.005Z,18.40
2017-06-16T01:10:16.252Z,18.50
2017-06-16T01:12:43.729Z,18.50
2017-06-16T01:15:11.993Z,18.60
2017-06-16T01:17:39.464Z,18.60
2017-06-16T01:20:07.726Z,18.60
2017-06-16T01:22:35.217Z,18.60
2017-06-16T01:25:02.720Z,18.60
2017-06-16T01:27:30.196Z,18.60
2017-06-16T01:29:57.668Z,18.60
2017-06-16T01:32:25.938Z,18.50
2017-06-16T01:34:53.418Z,18.50
2017-06-16T01:37:21.676Z,18.50
2017-06-16T01:39:49.932Z,18.50
2017-06-16T01:42:17.403Z,18.50
2017-06-16T01:44:44.909Z,18.50
2017-06-16T01:47:12.409Z,18.40
2017-06-16T01:49:39.900Z,18.30
2017-06-16T01:52:07.388Z,18.30
2017-06-16T01:54:34.896Z,18.30
2017-06-16T01:57:02.368Z,18.20
2017-06-16T01:59:30.642Z,18.10
2017-06-16T02:01:58.879Z,18.10
2017-06-16T02:04:26.375Z,18.00
2017-06-16T02:06:54.617Z,18.00
2017-06-16T02:09:22.089Z,18.00
2017-06-16T02:11:49.580Z,18.00
2017-06-16T02:14:17.887Z,18.00
2017-06-16T02:16:45.385Z,17.90
2017-06-16T02:19:12.864Z,17.90
2017-06-16T02:21:41.148Z,18.00
2017-06-16T02:24:08.628Z,18.00
2017-06-16T02:26:36.112Z,18.00
2017-06-16T02:29:03.612Z,18.00
2017-06-16T02:31:31.863Z,18.00
2017-06-16T02:33:59.362Z,18.00
2017-06-16T02:36:26.834Z,18.00
2017-06-16T02:38:54.324Z,18.10
2017-06-16T02:41:21.800Z,18.00
2017-06-16T02:43:49.300Z,18.00
2017-06-16T02:46:16.800Z,17.90
2017-06-16T02:48:44.282Z,17.90
2017-06-16T02:51:11.790Z,17.80
2017-06-16T02:53:39.281Z,17.80
2017-06-16T02:56:06.764Z,17.90
2017-06-16T02:58:34.253Z,17.90
2017-06-16T03:01:01.729Z,17.90
2017-06-16T03:03:29.199Z,17.80
2017-06-16T03:05:57.164Z,17.80
2017-06-16T03:08:24.653Z,17.80
2017-06-16T03:10:52.140Z,17.80
2017-06-16T03:13:20.377Z,17.70
2017-06-16T03:15:47.904Z,17.70
2017-06-16T03:18:15.378Z,17.60
2017-06-16T03:20:42.922Z,17.60
2017-06-16T03:23:10.397Z,17.60
2017-06-16T03:25:37.941Z,17.60
2017-06-16T03:28:05.440Z,17.60
2017-06-16T03:30:32.961Z,17.60
2017-06-16T03:33:00.431Z,17.50
2017-06-16T03:35:27.974Z,17.50
2017-06-16T03:37:55.456Z,17.40
2017-06-16T03:40:22.955Z,17.40
2017-06-16T03:42:51.209Z,17.40
2017-06-16T03:45:18.684Z,17.30
2017-06-16T03:47:46.948Z,17.30
2017-06-16T03:50:15.203Z,17.40
2017-06-16T03:52:42.709Z,17.30
2017-06-16T03:55:10.196Z,17.40
2017-06-16T03:57:37.709Z,17.40
2017-06-16T04:00:05.956Z,17.40
2017-06-16T04:02:33.453Z,17.40
2017-06-16T04:05:01.722Z,17.60
2017-06-16T04:07:29.192Z,17.60
2017-06-16T04:09:56.699Z,17.70
2017-06-16T04:12:24.202Z,17.70
2017-06-16T04:14:52.470Z,17.90
2017-06-16T04:17:20.720Z,17.90
2017-06-16T04:19:48.252Z,17.80
2017-06-16T04:22:15.756Z,17.90
2017-06-16T04:24:43.244Z,17.90
2017-06-16T04:27:10.728Z,18.00
2017-06-16T04:29:38.218Z,18.00
2017-06-16T04:32:05.704Z,18.00
2017-06-16T04:34:33.945Z,18.10
2017-06-16T04:37:01.441Z,18.00
2017-06-16T04:39:29.685Z,18.10
2017-06-16T04:41:57.165Z,18.10
2017-06-16T04:44:24.660Z,18.10
2017-06-16T04:46:52.132Z,18.20
2017-06-16T04:49:19.620Z,18.30
2017-06-16T04:51:47.106Z,18.40
2017-06-16T04:54:15.356Z,18.50
2017-06-16T04:56:42.865Z,18.40
2017-06-16T04:59:10.336Z,18.50
2017-06-16T05:01:37.840Z,18.50
2017-06-16T05:04:05.316Z,18.50
2017-06-16T05:06:33.584Z,18.70
2017-06-16T05:09:01.829Z,18.60
2017-06-16T05:11:29.320Z,18.60
2017-06-16T05:13:57.586Z,18.50
2017-06-16T05:16:25.074Z,18.50
2017-06-16T05:18:52.571Z,18.50
2017-06-16T05:21:20.054Z,18.50
2017-06-16T05:23:47.532Z,18.40
2017-06-16T05:26:15.801Z,18.40
2017-06-16T05:28:43.314Z,18.40
2017-06-16T05:31:10.789Z,18.50
2017-06-16T05:33:38.264Z,18.60
2017-06-16T05:36:05.760Z,18.60
2017-06-16T05:38:33.346Z,18.70
2017-06-16T05:41:00.834Z,18.60
2017-06-16T05:43:28.313Z,18.60
2017-06-16T05:45:56.575Z,18.80
2017-06-16T05:48:24.048Z,18.70
2017-06-16T05:50:52.284Z,18.90
2017-06-16T05:53:19.775Z,18.90
2017-06-16T05:55:47.248Z,18.80
2017-06-16T05:58:15.492Z,19.10
2017-06-16T06:00:42.984Z,19.00
2017-06-16T06:03:11.229Z,19.20
2017-06-16T06:05:38.712Z,19.20
2017-06-16T06:08:06.958Z,19.20
2017-06-16T06:10:34.440Z,19.20
2017-06-16T06:13:02.689Z,19.30
2017-06-16T06:15:30.176Z,19.30
2017-06-16T06:17:58.415Z,19.50
2017-06-16T06:20:25.920Z,19.50
2017-06-16T06:22:54.234Z,19.50
2017-06-16T06:25:21.709Z,19.50
2017-06-16T06:27:49.208Z,19.30
2017-06-16T06:30:17.450Z,19.60
2017-06-16T06:32:44.928Z,19.50
2017-06-16T06:35:12.425Z,19.80
2017-06-16T06:37:40.003Z,20.10
2017-06-16T06:40:07.481Z,20.40
2017-06-16T06:42:34.961Z,20.60
2017-06-16T06:45:02.448Z,20.80
2017-06-16T06:47:29.924Z,20.80
2017-06-16T06:49:57.461Z,20.80
2017-06-16T06:52:25.716Z,20.70
2017-06-16T06:54:53.227Z,20.70
2017-06-16T06:57:20.706Z,21.20
2017-06-16T06:59:48.197Z,21.30
2017-06-16T07:02:16.472Z,22.20
2017-06-16T07:04:43.949Z,22.20
2017-06-16T07:07:11.490Z,22.20
2017-06-16T07:09:38.952Z,22.20
2017-06-16T07:12:07.211Z,23.30
2017-06-16T07:14:34.698Z,23.30
2017-06-16T07:17:02.968Z,23.20
2017-06-16T07:19:31.205Z,23.40
2017-06-16T07:21:58.740Z,23.40
2017-06-16T07:24:26.237Z,24.40
2017-06-16T07:26:53.724Z,25.30
2017-06-16T07:29:21.958Z,26.80
2017-06-16T07:31:49.460Z,26.70
2017-06-16T07:34:17.711Z,26.80
2017-06-16T07:36:45.196Z,26.80
2017-06-16T07:39:13.463Z,27.20
2017-06-16T07:41:41.729Z,27.70
2017-06-16T07:44:09.212Z,27.70
2017-06-16T07:46:36.698Z,28.40
2017-06-16T07:49:04.184Z,29.00
2017-06-16T07:51:31.681Z,28.50
2017-06-16T07:53:59.936Z,28.80
2017-06-16T07:56:27.427Z,28.70
2017-06-16T07:58:54.917Z,29.20
2017-06-16T08:01:22.390Z,30.00
2017-06-16T08:03:49.865Z,29.40
2017-06-16T08:06:17.360Z,28.20
2017-06-16T08:08:44.839Z,28.00
2017-06-16T08:11:12.331Z,28.30
2017-06-16T08:13:39.804Z,28.10
2017-06-16T08:16:08.060Z,28.30
2017-06-16T08:18:35.541Z,28.30
2017-06-16T08:21:09.635Z,29.90
2017-06-16T08:23:37.129Z,29.90
2017-06-16T08:26:04.607Z,29.80
2017-06-16T08:28:32.073Z,29.80
2017-06-16T08:30:59.564Z,29.60
2017-06-16T08:33:27.039Z,30.00
2017-06-16T08:35:54.538Z,29.90
2017-06-16T08:38:22.017Z,29.50
2017-06-16T08:40:49.505Z,30.40
2017-06-16T08:43:16.993Z,31.20
2017-06-16T08:45:44.482Z,32.10
2017-06-16T08:48:11.964Z,31.60
2017-06-16T08:50:39.440Z,31.50
2017-06-16T08:53:06.946Z,31.60
2017-06-16T08:55:34.438Z,31.50
2017-06-16T08:58:01.941Z,31.10
2017-06-16T09:00:30.175Z,31.50
2017-06-16T09:02:57.669Z,31.40
2017-06-16T09:05:25.911Z,33.50
2017-06-16T09:07:53.439Z,33.40
2017-06-16T09:10:20.915Z,33.30
2017-06-16T09:12:48.397Z,33.90
2017-06-16T09:15:15.885Z,34.00
2017-06-16T09:17:44.139Z,35.60
2017-06-16T09:20:11.647Z,35.50
2017-06-16T09:22:39.120Z,35.30
2017-06-16T09:25:06.625Z,34.80
2017-06-16T09:27:34.856Z,35.30
2017-06-16T09:30:02.334Z,35.20
2017-06-16T09:32:29.825Z,34.80
2017-06-16T09:34:59.100Z,34.90
2017-06-16T09:37:26.610Z,34.90
2017-06-16T09:39:54.088Z,34.10
2017-06-16T09:42:21.557Z,33.90
2017-06-16T09:44:49.086Z,32.60
2017-06-16T09:47:16.566Z,34.00
2017-06-16T09:49:44.060Z,33.80
2017-06-16T09:52:11.532Z,34.10
2017-06-16T09:54:39.841Z,34.60
2017-06-16T09:57:08.218Z,34.60
2017-06-16T09:59:35.685Z,34.30
2017-06-16T10:02:03.194Z,33.30
2017-06-16T10:04:31.441Z,34.60
2017-06-16T10:06:58.918Z,34.60
2017-06-16T10:09:27.181Z,34.70
2017-06-16T10:11:54.661Z,34.70
2017-06-16T10:14:22.926Z,34.70
2017-06-16T10:16:50.406Z,34.70
2017-06-16T10:19:18.633Z,32.70
2017-06-16T10:21:46.125Z,32.70
2017-06-16T10:24:13.617Z,33.60
2017-06-16T10:26:41.097Z,32.70
2017-06-16T10:29:08.596Z,33.30
2017-06-16T10:31:36.080Z,33.00
2017-06-16T10:34:03.557Z,32.60
2017-06-16T10:36:31.052Z,32.80
2017-06-16T10:38:58.518Z,32.70
2017-06-16T10:41:26.005Z,33.90
2017-06-16T10:43:54.244Z,34.90
2017-06-16T10:46:21.717Z,34.90
2017-06-16T10:48:49.257Z,35.40
2017-06-16T10:51:16.728Z,36.30
2017-06-16T10:53:44.231Z,34.70
2017-06-16T10:56:11.710Z,33.90
2017-06-16T10:58:39.200Z,33.70
2017-06-16T11:01:06.695Z,34.00
2017-06-16T11:03:34.944Z,33.50
2017-06-16T11:06:02.420Z,33.50
2017-06-16T11:08:30.665Z,32.50
2017-06-16T11:10:58.154Z,32.50
2017-06-16T11:13:26.416Z,30.10
2017-06-16T11:15:53.889Z,30.10
2017-06-16T11:18:22.124Z,28.10
2017-06-16T11:20:49.628Z,28.10
2017-06-16T11:23:17.110Z,28.30
2017-06-16T11:25:44.607Z,28.30
2017-06-16T11:28:12.081Z,28.50
2017-06-16T11:30:40.352Z,28.30
2017-06-16T11:33:07.849Z,28.30
2017-06-16T11:35:35.329Z,28.00
2017-06-16T11:38:02.793Z,27.60
2017-06-16T11:40:30.294Z,27.20
2017-06-16T11:42:58.528Z,26.70
2017-06-16T11:45:26.022Z,26.70
2017-06-16T11:47:53.577Z,26.70
2017-06-16T11:50:21.052Z,26.90
2017-06-16T11:52:49.325Z,26.60
2017-06-16T11:55:17.561Z,27.00
2017-06-16T11:57:45.051Z,26.90
2017-06-16T12:00:12.666Z,26.80
2017-06-16T12:02:40.162Z,26.50
2017-06-16T12:05:07.663Z,26.50
2017-06-16T12:07:35.141Z,26.20
2017-06-16T12:10:02.640Z,25.90
2017-06-16T12:12:30.120Z,26.20
2017-06-16T12:14:58.361Z,25.50
2017-06-16T12:17:25.858Z,25.50
2017-06-16T12:19:54.124Z,25.30
2017-06-16T12:22:22.361Z,25.50
2017-06-16T12:24:49.864Z,25.40
2017-06-16T12:27:18.127Z,26.00
2017-06-16T12:29:45.604Z,26.00
2017-06-16T12:32:13.874Z,25.90
2017-06-16T12:34:42.111Z,26.20
2017-06-16T12:37:09.640Z,26.20
2017-06-16T12:39:37.128Z,26.20
2017-06-16T12:42:04.604Z,26.00
2017-06-16T12:44:32.088Z,25.80
2017-06-16T12:47:00.332Z,25.50
2017-06-16T12:49:27.805Z,25.50
2017-06-16T12:51:56.077Z,25.30
2017-06-16T12:54:23.545Z,25.30
2017-06-16T12:56:51.860Z,25.30
2017-06-16T12:59:19.336Z,25.30
2017-06-16T13:01:46.833Z,25.30
2017-06-16T13:04:15.059Z,25.20
2017-06-16T13:06:42.548Z,25.20
2017-06-16T13:09:10.059Z,25.30
2017-06-16T13:11:37.547Z,24.80
2017-06-16T13:14:05.049Z,24.50
2017-06-16T13:16:33.288Z,24.80
2017-06-16T13:19:00.777Z,24.80
2017-06-16T13:21:29.077Z,25.20
2017-06-16T13:23:56.572Z,25.20
2017-06-16T13:26:24.111Z,25.10
2017-06-16T13:28:51.576Z,24.90
2017-06-16T13:31:19.088Z,24.60
2017-06-16T13:33:47.324Z,24.30
2017-06-16T13:36:14.801Z,24.30
2017-06-16T13:38:42.292Z,24.50
2017-06-16T13:41:10.548Z,24.00
2017-06-16T13:43:38.058Z,24.00
2017-06-16T13:46:05.546Z,23.90
2017-06-16T13:48:33.042Z,23.90
2017-06-16T13:51:01.288Z,24.40
2017-06-16T13:53:28.761Z,24.40
2017-06-16T13:55:56.272Z,25.10
2017-06-16T13:58:23.825Z,25.40
2017-06-16T14:00:51.304Z,25.20
2017-06-16T14:03:18.792Z,25.10
2017-06-16T14:05:46.281Z,25.00
2017-06-16T14:08:13.784Z,24.70
2017-06-16T14:10:41.318Z,24.40
2017-06-16T14:13:08.827Z,24.10
2017-06-16T14:15:36.300Z,24.40
2017-06-16T14:18:04.552Z,23.90
2017-06-16T14:20:32.037Z,23.90
2017-06-16T14:23:00.346Z,23.80
2017-06-16T14:25:27.833Z,23.80
2017-06-16T14:27:55.361Z,24.10
2017-06-16T14:30:22.849Z,24.30
2017-06-16T14:32:50.332Z,24.30
2017-06-16T14:35:17.940Z,24.10
2017-06-16T14:37:45.407Z,23.80
2017-06-16T14:40:12.901Z,23.50
2017-06-16T14:42:40.376Z,23.80
2017-06-16T14:45:08.631Z,24.10
2017-06-16T14:47:36.146Z,24.10
2017-06-16T14:50:03.621Z,24.10
2017-06-16T14:52:31.112Z,23.90
2017-06-16T14:54:58.580Z,24.20
2017-06-16T14:57:26.851Z,23.10
2017-06-16T14:59:54.349Z,23.10
2017-06-16T15:02:21.841Z,22.90
2017-06-16T15:04:49.308Z,22.90
2017-06-16T15:07:16.804Z,23.00
2017-06-16T15:09:44.329Z,23.10
2017-06-16T15:12:11.805Z,22.90
2017-06-16T15:14:40.061Z,23.40
2017-06-16T15:17:07.532Z,23.40
2017-06-16T15:19:35.792Z,23.40
2017-06-16T15:22:03.299Z,23.40
2017-06-16T15:24:30.808Z,23.30
2017-06-16T15:26:58.294Z,23.00
2017-06-16T15:29:26.528Z,22.80
2017-06-16T15:31:54.023Z,22.70
2017-06-16T15:34:22.268Z,23.00
2017-06-16T15:36:49.793Z,23.00
2017-06-16T15:39:17.467Z,22.90
2017-06-16T15:41:44.934Z,22.70
2017-06-16T15:44:12.443Z,22.60
2017-06-16T15:46:40.708Z,22.50
2017-06-16T15:49:08.981Z,22.60
2017-06-16T15:51:36.456Z,22.60
2017-06-16T15:54:04.716Z,22.80
2017-06-16T15:56:32.188Z,22.70
2017-06-16T15:59:00.436Z,23.40
2017-06-16T16:01:27.938Z,23.30
2017-06-16T16:03:55.435Z,23.40
2017-06-16T16:06:22.930Z,23.30
2017-06-16T16:08:51.183Z,23.00
2017-06-16T16:11:18.657Z,23.00
2017-06-16T16:13:46.127Z,22.60
2017-06-16T16:16:14.446Z,22.70
2017-06-16T16:18:41.940Z,22.70
2017-06-16T16:21:09.451Z,22.90
2017-06-16T16:23:36.949Z,23.00
2017-06-16T16:26:04.453Z,23.00
2017-06-16T16:28:31.948Z,22.80
2017-06-16T16:30:59.458Z,22.60
2017-06-16T16:33:27.701Z,22.30
2017-06-16T16:35:55.205Z,22.30
2017-06-16T16:38:22.685Z,22.20
2017-06-16T16:40:50.177Z,22.00
2017-06-16T16:43:17.653Z,22.00
2017-06-16T16:45:45.905Z,22.00
2017-06-16T16:48:13.400Z,22.00
2017-06-16T16:50:41.653Z,21.70
2017-06-16T16:53:09.153Z,21.60
2017-06-16T16:55:36.620Z,21.80
2017-06-16T16:58:04.120Z,21.80
2017-06-16T17:00:31.625Z,21.70
2017-06-16T17:02:59.117Z,21.70
2017-06-16T17:05:26.588Z,21.60
2017-06-16T17:07:54.123Z,21.40
2017-06-16T17:10:21.623Z,21.40
2017-06-16T17:12:49.139Z,21.40
2017-06-16T17:15:16.632Z,21.40
2017-06-16T17:17:44.105Z,21.20
2017-06-16T17:20:11.596Z,21.10
2017-06-16T17:22:39.072Z,21.00
2017-06-16T17:25:06.557Z,20.80
2017-06-16T17:27:34.040Z,20.60
2017-06-16T17:30:02.313Z,20.50
2017-06-16T17:32:29.804Z,20.50
2017-06-16T17:34:57.274Z,20.50
2017-06-16T17:37:24.768Z,20.50
2017-06-16T17:39:52.245Z,20.50
2017-06-16T17:42:19.736Z,20.40
2017-06-16T17:44:47.218Z,20.30
2017-06-16T17:47:14.725Z,20.20
2017-06-16T17:49:42.962Z,20.00
2017-06-16T17:52:10.449Z,20.00
2017-06-16T17:54:37.976Z,20.00
2017-06-16T17:57:05.453Z,20.00
2017-06-16T17:59:32.953Z,20.00
2017-06-16T18:02:00.445Z,19.90
2017-06-16T18:04:27.940Z,19.90
2017-06-16T18:06:55.474Z,19.80
2017-06-16T18:09:22.973Z,19.80
2017-06-16T18:11:51.245Z,19.70
2017-06-16T18:14:19.500Z,19.50
2017-06-16T18:16:46.979Z,19.50
2017-06-16T18:19:15.234Z,19.40
2017-06-16T18:21:42.780Z,19.40
2017-06-16T18:24:10.278Z,19.30
2017-06-16T18:26:38.517Z,19.30
2017-06-16T18:29:06.020Z,19.30
2017-06-16T18:31:33.509Z,19.20
2017-06-16T18:34:01.025Z,19.10
2017-06-16T18:36:29.346Z,19.00
2017-06-16T18:38:56.863Z,19.10
2017-06-16T18:41:25.126Z,19.00
2017-06-16T18:43:52.614Z,18.90
2017-06-16T18:46:20.108Z,18.90
2017-06-16T18:48:47.595Z,18.90
2017-06-16T18:51:15.110Z,18.90
2017-06-16T18:53:42.622Z,18.80
2017-06-16T18:56:10.105Z,18.80
2017-06-16T18:58:37.601Z,18.60
2017-06-16T19:01:05.084Z,18.60
2017-06-16T19:03:32.562Z,18.60
2017-06-16T19:06:00.834Z,18.40
2017-06-16T19:08:28.305Z,18.40
2017-06-16T19:10:56.588Z,18.40
2017-06-16T19:13:24.895Z,18.20
2017-06-16T19:15:52.401Z,18.20
2017-06-16T19:18:19.878Z,18.20
2017-06-16T19:20:48.142Z,18.10
2017-06-16T19:23:15.629Z,18.10
2017-06-16T19:25:43.113Z,18.10
2017-06-16T19:28:10.609Z,18.10
2017-06-16T19:30:38.098Z,18.10
2017-06-16T19:33:05.618Z,18.00
2017-06-16T19:35:33.154Z,17.90
2017-06-16T19:38:00.633Z,17.80
2017-06-16T19:40:28.121Z,17.80
2017-06-16T19:42:56.375Z,17.70
2017-06-16T19:45:23.876Z,17.70
2017-06-16T19:47:51.386Z,17.70
2017-06-16T19:50:18.868Z,17.70
2017-06-16T19:52:47.140Z,17.60
2017-06-16T19:55:15.388Z,17.60
2017-06-16T19:57:42.865Z,17.60
2017-06-16T20:00:10.374Z,17.60
2017-06-16T20:02:37.873Z,17.50
2017-06-16T20:05:05.352Z,17.50
2017-06-16T20:07:33.623Z,17.50
2017-06-16T20:10:01.874Z,17.40
2017-06-16T20:12:29.504Z,17.50
2017-06-16T20:14:56.988Z,17.50
2017-06-16T20:17:24.465Z,17.40
2017-06-16T20:19:51.959Z,17.30
2017-06-16T20:22:19.445Z,17.30
2017-06-16T20:24:46.944Z,17.30
2017-06-16T20:27:15.200Z,17.30
2017-06-16T20:29:42.709Z,17.30
2017-06-16T20:32:10.221Z,17.30
2017-06-16T20:34:37.721Z,17.20
2017-06-16T20:37:05.206Z,17.10
2017-06-16T20:39:32.701Z,17.10
2017-06-16T20:42:00.197Z,17.00
2017-06-16T20:44:27.709Z,17.00
2017-06-16T20:46:55.204Z,17.00
2017-06-16T20:49:23.449Z,17.00
2017-06-16T20:51:50.940Z,17.00
2017-06-16T20:54:18.497Z,16.90
2017-06-16T20:56:46.753Z,16.90
2017-06-16T20:59:14.237Z,16.80
2017-06-16T21:01:41.733Z,16.70
2017-06-16T21:04:09.212Z,16.80
2017-06-16T21:06:36.704Z,16.70
2017-06-16T21:09:05.000Z,16.50
2017-06-16T21:11:32.492Z,16.50
2017-06-16T21:14:00.044Z,16.50
2017-06-16T21:16:27.547Z,16.50
2017-06-16T21:18:55.793Z,16.50
2017-06-16T21:21:23.297Z,16.50
2017-06-16T21:23:51.557Z,16.30
2017-06-16T21:26:19.885Z,16.30
2017-06-16T21:28:47.371Z,16.20
2017-06-16T21:31:14.860Z,16.20
2017-06-16T21:33:43.178Z,16.20
2017-06-16T21:36:10.709Z,16.10
2017-06-16T21:38:38.184Z,16.10
2017-06-16T21:41:05.703Z,16.20
2017-06-16T21:43:33.961Z,16.20
2017-06-16T21:46:01.465Z,16.10
2017-06-16T21:48:28.970Z,16.30
2017-06-16T21:50:56.468Z,16.20
2017-06-16T21:53:24.729Z,16.20
2017-06-16T21:55:53.020Z,16.20
2017-06-16T21:58:21.269Z,16.20
2017-06-16T22:00:48.784Z,16.10
2017-06-16T22:03:16.264Z,16.00
2017-06-16T22:05:43.783Z,16.00
2017-06-16T22:08:11.263Z,15.90
2017-06-16T22:10:38.748Z,15.80
2017-06-16T22:13:06.248Z,15.80
2017-06-16T22:15:34.516Z,15.80
2017-06-16T22:18:02.783Z,15.90
2017-06-16T22:20:30.264Z,15.90
2017-06-16T22:22:57.858Z,15.90
2017-06-16T22:25:25.361Z,16.00
2017-06-16T22:27:53.665Z,16.10
2017-06-16T22:30:21.144Z,16.10
2017-06-16T22:32:48.630Z,16.00
2017-06-16T22:35:16.109Z,15.90
2017-06-16T22:37:43.580Z,15.80
2017-06-16T22:40:11.857Z,15.60
2017-06-16T22:42:40.126Z,15.60
2017-06-16T22:45:08.400Z,15.60
2017-06-16T22:47:35.910Z,15.50
2017-06-16T22:50:03.406Z,15.50
2017-06-16T22:52:30.877Z,15.60
2017-06-16T22:54:58.371Z,15.50
2017-06-16T22:57:25.851Z,15.60
2017-06-16T22:59:53.331Z,15.70
2017-06-16T23:02:20.829Z,15.70
2017-06-16T23:04:49.072Z,15.70
2017-06-16T23:07:16.577Z,15.70
2017-06-16T23:09:44.057Z,15.70
2017-06-16T23:12:11.613Z,15.70
2017-06-16T23:14:39.115Z,15.70
2017-06-16T23:17:06.593Z,15.60
2017-06-16T23:19:34.911Z,15.60
2017-06-16T23:22:02.391Z,15.60
2017-06-16T23:24:29.924Z,15.60
2017-06-16T23:26:57.416Z,15.70
2017-06-16T23:29:24.891Z,15.60
2017-06-16T23:31:52.382Z,15.50
2017-06-16T23:34:19.958Z,15.50
2017-06-16T23:36:47.461Z,15.50
2017-06-16T23:39:14.974Z,15.40
2017-06-16T23:41:42.467Z,15.30
2017-06-16T23:44:09.957Z,15.10
2017-06-16T23:46:38.216Z,15.10
2017-06-16T23:49:05.713Z,15.10
2017-06-16T23:51:33.189Z,15.00
2017-06-16T23:54:00.688Z,15.00
2017-06-16T23:56:28.173Z,15.00
2017-06-16T23:58:56.439Z,15.00
